createdAt,value
2018-01-02T00:00:31.811Z,8.80
2018-01-02T00:01:31.794Z,8.40
2018-01-02T00:02:31.773Z,9.70
2018-01-02T00:03:31.759Z,9.40
2018-01-02T00:04:31.740Z,9.70
2018-01-02T00:05:31.717Z,9.10
2018-01-02T00:06:31.699Z,9.10
2018-01-02T00:07:31.672Z,10.10
2018-01-02T00:08:31.653Z,9.30
2018-01-02T00:09:31.632Z,10.80
2018-01-02T00:10:31.615Z,11.30
2018-01-02T00:11:31.659Z,10.60
2018-01-02T00:12:31.579Z,10.80
2018-01-02T00:13:31.559Z,9.70
2018-01-02T00:14:31.537Z,10.40
2018-01-02T00:15:31.510Z,11.50
2018-01-02T00:16:31.496Z,12.10
2018-01-02T00:17:31.474Z,12.10
2018-01-02T00:18:31.449Z,11.80
2018-01-02T00:19:31.436Z,10.50
2018-01-02T00:20:31.413Z,11.20
2018-01-02T00:21:31.401Z,13.50
2018-01-02T00:22:31.377Z,10.30
2018-01-02T00:23:31.348Z,13.30
2018-01-02T00:24:31.330Z,12.40
2018-01-02T00:25:31.326Z,11.10
2018-01-02T00:26:31.300Z,9.90
2018-01-02T00:27:31.277Z,12.10
2018-01-02T00:28:31.251Z,11.20
2018-01-02T00:29:31.241Z,9.90
2018-01-02T00:30:31.216Z,10.40
2018-01-02T00:31:31.193Z,10.70
2018-01-02T00:32:31.176Z,9.80
2018-01-02T00:33:31.155Z,9.30
2018-01-02T00:34:31.141Z,10.10
2018-01-02T00:35:31.120Z,10.90
2018-01-02T00:36:31.093Z,10.00
2018-01-02T00:37:31.081Z,11.80
2018-01-02T00:38:31.052Z,9.60
2018-01-02T00:39:31.033Z,10.40
2018-01-02T00:40:31.014Z,10.70
2018-01-02T00:41:30.991Z,9.10
2018-01-02T00:42:30.970Z,9.90
2018-01-02T00:43:30.951Z,10.40
2018-01-02T00:44:30.946Z,10.10
2018-01-02T00:45:30.905Z,11.20
2018-01-02T00:46:30.889Z,10.40
2018-01-02T00:47:30.865Z,9.50
2018-01-02T00:48:30.850Z,9.00
2018-01-02T00:49:30.827Z,8.90
2018-01-02T00:50:30.822Z,8.80
2018-01-02T00:51:30.786Z,11.10
2018-01-02T00:52:30.769Z,8.60
2018-01-02T00:53:30.747Z,9.60
2018-01-02T00:54:30.728Z,11.50
2018-01-02T00:55:30.708Z,9.70
2018-01-02T00:56:30.689Z,11.60
2018-01-02T00:57:30.670Z,8.10
2018-01-02T00:58:30.644Z,9.70
2018-01-02T00:59:30.632Z,6.50
2018-01-02T01:00:30.618Z,12.00
2018-01-02T01:01:30.589Z,9.10
2018-01-02T01:02:30.566Z,10.20
2018-01-02T01:03:30.551Z,9.70
2018-01-02T01:04:30.529Z,9.30
2018-01-02T01:05:30.508Z,9.10
2018-01-02T01:06:30.488Z,9.70
2018-01-02T01:07:30.468Z,9.30
2018-01-02T01:08:30.445Z,10.30
2018-01-02T01:09:30.424Z,9.10
2018-01-02T01:10:30.404Z,10.80
2018-01-02T01:11:30.384Z,8.70
2018-01-02T01:12:30.361Z,9.80
2018-01-02T01:13:30.342Z,13.20
2018-01-02T01:14:30.320Z,9.00
2018-01-02T01:15:30.312Z,10.90
2018-01-02T01:16:30.282Z,11.30
2018-01-02T01:17:30.266Z,10.20
2018-01-02T01:18:30.245Z,7.90
2018-01-02T01:19:30.227Z,9.40
2018-01-02T01:20:30.209Z,8.80
2018-01-02T01:21:30.182Z,8.90
2018-01-02T01:22:30.169Z,9.70
2018-01-02T01:23:30.140Z,8.60
2018-01-02T01:24:30.118Z,11.00
2018-01-02T01:25:30.106Z,13.70
2018-01-02T01:26:30.083Z,9.60
2018-01-02T01:27:30.063Z,9.90
2018-01-02T01:28:30.040Z,12.50
2018-01-02T01:29:30.023Z,8.70
2018-01-02T01:30:30.000Z,10.70
2018-01-02T01:31:29.986Z,12.70
2018-01-02T01:32:29.961Z,11.60
2018-01-02T01:33:29.942Z,10.10
2018-01-02T01:34:29.917Z,13.30
2018-01-02T01:35:29.901Z,11.80
2018-01-02T01:36:29.878Z,10.10
2018-01-02T01:37:29.891Z,9.10
2018-01-02T01:38:29.836Z,9.60
2018-01-02T01:39:29.820Z,11.20
2018-01-02T01:40:29.800Z,10.60
2018-01-02T01:41:29.777Z,9.70
2018-01-02T01:42:29.754Z,9.70
2018-01-02T01:43:29.743Z,12.70
2018-01-02T01:44:29.719Z,8.90
2018-01-02T01:45:29.698Z,9.20
2018-01-02T01:46:29.681Z,10.40
2018-01-02T01:47:29.655Z,9.50
2018-01-02T01:48:29.639Z,9.90
2018-01-02T01:49:29.614Z,10.60
2018-01-02T01:50:29.600Z,8.40
2018-01-02T01:51:29.574Z,9.20
2018-01-02T01:52:29.560Z,10.30
2018-01-02T01:53:29.782Z,11.30
2018-01-02T01:54:29.510Z,10.70
2018-01-02T01:55:29.489Z,9.10
2018-01-02T01:56:29.473Z,8.90
2018-01-02T01:57:29.459Z,10.60
2018-01-02T01:58:29.438Z,8.10
2018-01-02T01:59:29.409Z,9.90
2018-01-02T02:00:29.400Z,9.30
2018-01-02T02:01:29.370Z,8.90
2018-01-02T02:02:29.353Z,10.00
2018-01-02T02:03:29.329Z,9.90
2018-01-02T02:04:29.311Z,9.90
2018-01-02T02:05:29.299Z,9.00
2018-01-02T02:06:29.269Z,10.60
2018-01-02T02:07:29.250Z,10.70
2018-01-02T02:08:29.232Z,9.00
2018-01-02T02:09:29.208Z,12.90
2018-01-02T02:10:29.199Z,10.30
2018-01-02T02:11:29.170Z,14.30
2018-01-02T02:12:29.149Z,12.00
2018-01-02T02:13:29.128Z,12.00
2018-01-02T02:14:29.109Z,12.00
2018-01-02T02:15:29.085Z,11.20
2018-01-02T02:16:29.069Z,9.90
2018-01-02T02:17:29.047Z,12.40
2018-01-02T02:18:29.033Z,10.80
2018-01-02T02:19:29.007Z,14.80
2018-01-02T02:20:28.983Z,11.90
2018-01-02T02:21:28.965Z,11.60
2018-01-02T02:22:28.947Z,11.20
2018-01-02T02:23:28.929Z,13.50
2018-01-02T02:24:28.910Z,12.20
2018-01-02T02:25:28.891Z,11.20
2018-01-02T02:26:28.866Z,14.30
2018-01-02T02:27:28.841Z,13.70
2018-01-02T02:28:28.831Z,10.60
2018-01-02T02:29:28.810Z,12.10
2018-01-02T02:30:28.787Z,13.10
2018-01-02T02:31:28.765Z,11.30
2018-01-02T02:32:28.742Z,11.70
2018-01-02T02:33:28.720Z,11.30
2018-01-02T02:34:28.701Z,11.00
2018-01-02T02:35:28.682Z,12.60
2018-01-02T02:36:28.661Z,13.90
2018-01-02T02:37:28.642Z,10.60
2018-01-02T02:38:28.639Z,10.80
2018-01-02T02:39:28.598Z,11.80
2018-01-02T02:40:28.581Z,10.70
2018-01-02T02:41:28.557Z,14.10
2018-01-02T02:42:28.541Z,9.60
2018-01-02T02:43:28.521Z,9.00
2018-01-02T02:44:28.499Z,11.90
2018-01-02T02:45:28.474Z,11.30
2018-01-02T02:46:28.455Z,11.70
2018-01-02T02:47:28.433Z,10.30
2018-01-02T02:48:28.414Z,10.70
2018-01-02T02:49:28.396Z,10.30
2018-01-02T02:50:28.381Z,12.70
2018-01-02T02:51:28.359Z,10.90
2018-01-02T02:52:28.335Z,9.20
2018-01-02T02:53:28.327Z,11.10
2018-01-02T02:54:28.291Z,11.10
2018-01-02T02:55:28.272Z,10.40
2018-01-02T02:56:28.261Z,10.90
2018-01-02T02:57:28.235Z,9.30
2018-01-02T02:58:28.210Z,12.90
2018-01-02T02:59:28.190Z,12.40
2018-01-02T03:00:28.171Z,8.50
2018-01-02T03:01:28.151Z,10.50
2018-01-02T03:02:28.131Z,8.90
2018-01-02T03:03:28.110Z,9.50
2018-01-02T03:04:28.090Z,9.10
2018-01-02T03:05:28.072Z,9.40
2018-01-02T03:06:28.043Z,8.60
2018-01-02T03:07:28.030Z,7.40
2018-01-02T03:08:28.007Z,9.00
2018-01-02T03:09:27.985Z,7.70
2018-01-02T03:10:27.970Z,8.20
2018-01-02T03:11:27.944Z,6.70
2018-01-02T03:12:27.922Z,8.90
2018-01-02T03:13:27.900Z,8.30
2018-01-02T03:14:27.879Z,7.90
2018-01-02T03:15:27.860Z,8.70
2018-01-02T03:16:27.840Z,6.00
2018-01-02T03:17:27.826Z,9.30
2018-01-02T03:18:27.798Z,7.10
2018-01-02T03:19:27.778Z,8.00
2018-01-02T03:20:27.811Z,7.60
2018-01-02T03:21:27.734Z,10.00
2018-01-02T03:22:27.718Z,7.00
2018-01-02T03:23:27.700Z,9.10
2018-01-02T03:24:27.674Z,9.90
2018-01-02T03:25:27.652Z,9.50
2018-01-02T03:26:27.632Z,9.40
2018-01-02T03:27:27.613Z,7.60
2018-01-02T03:28:27.641Z,8.10
2018-01-02T03:29:27.575Z,9.10
2018-01-02T03:30:27.599Z,9.90
2018-01-02T03:31:27.545Z,11.30
2018-01-02T03:32:27.504Z,9.00
2018-01-02T03:33:27.486Z,10.10
2018-01-02T03:34:27.462Z,10.30
2018-01-02T03:35:27.444Z,12.00
2018-01-02T03:36:27.430Z,10.40
2018-01-02T03:37:27.410Z,12.90
2018-01-02T03:38:27.380Z,12.80
2018-01-02T03:39:27.358Z,12.10
2018-01-02T03:40:27.389Z,12.80
2018-01-02T03:41:27.320Z,12.00
2018-01-02T03:42:27.299Z,12.60
2018-01-02T03:43:27.278Z,12.50
2018-01-02T03:44:27.259Z,13.40
2018-01-02T03:45:27.233Z,12.60
2018-01-02T03:46:27.212Z,11.70
2018-01-02T03:47:27.189Z,12.90
2018-01-02T03:48:27.170Z,14.70
2018-01-02T03:49:27.159Z,12.70
2018-01-02T03:50:27.125Z,14.40
2018-01-02T03:51:27.106Z,14.20
2018-01-02T03:52:27.089Z,14.20
2018-01-02T03:53:27.069Z,14.60
2018-01-02T03:54:27.044Z,12.40
2018-01-02T03:55:27.023Z,15.60
2018-01-02T03:56:27.004Z,14.50
2018-01-02T03:57:26.984Z,16.60
2018-01-02T03:58:26.960Z,17.30
2018-01-02T03:59:26.939Z,16.40
2018-01-02T04:00:26.922Z,20.70
2018-01-02T04:01:26.897Z,15.50
2018-01-02T04:02:26.877Z,18.10
2018-01-02T04:03:26.858Z,19.60
2018-01-02T04:04:26.840Z,18.20
2018-01-02T04:05:26.820Z,19.80
2018-01-02T04:06:26.790Z,19.30
2018-01-02T04:07:26.768Z,20.10
2018-01-02T04:08:26.756Z,23.90
2018-01-02T04:09:26.729Z,17.20
2018-01-02T04:10:26.708Z,17.80
2018-01-02T04:11:26.691Z,19.80
2018-01-02T04:12:26.673Z,16.90
2018-01-02T04:13:26.644Z,19.00
2018-01-02T04:14:26.629Z,19.00
2018-01-02T04:15:26.600Z,19.90
2018-01-02T04:16:26.579Z,21.10
2018-01-02T04:17:26.566Z,21.40
2018-01-02T04:18:26.537Z,22.20
2018-01-02T04:19:26.520Z,21.70
2018-01-02T04:20:26.501Z,19.90
2018-01-02T04:21:26.480Z,22.00
2018-01-02T04:22:26.461Z,19.80
2018-01-02T04:23:26.434Z,23.70
2018-01-02T04:24:26.459Z,20.60
2018-01-02T04:25:26.399Z,22.70
2018-01-02T04:26:26.379Z,22.70
2018-01-02T04:27:26.351Z,20.80
2018-01-02T04:28:26.432Z,19.70
2018-01-02T04:29:26.312Z,22.20
2018-01-02T04:30:26.441Z,20.50
2018-01-02T04:31:26.271Z,21.80
2018-01-02T04:32:26.249Z,18.70
2018-01-02T04:33:26.235Z,22.10
2018-01-02T04:34:26.205Z,22.20
2018-01-02T04:35:26.186Z,19.80
2018-01-02T04:36:26.172Z,18.50
2018-01-02T04:37:26.146Z,18.90
2018-01-02T04:38:26.128Z,22.80
2018-01-02T04:39:26.102Z,19.10
2018-01-02T04:40:26.231Z,18.90
2018-01-02T04:41:26.059Z,21.60
2018-01-02T04:42:26.147Z,23.80
2018-01-02T04:43:26.019Z,21.70
2018-01-02T04:44:26.000Z,22.50
2018-01-02T04:45:26.020Z,20.10
2018-01-02T04:46:26.109Z,23.50
2018-01-02T04:47:25.938Z,22.80
2018-01-02T04:48:25.917Z,22.20
2018-01-02T04:49:25.900Z,21.50
2018-01-02T04:50:25.876Z,20.90
2018-01-02T04:51:25.852Z,21.30
2018-01-02T04:52:25.836Z,23.00
2018-01-02T04:53:25.812Z,21.10
2018-01-02T04:54:25.800Z,22.50
2018-01-02T04:55:25.771Z,23.00
2018-01-02T04:56:25.761Z,21.70
2018-01-02T04:57:25.731Z,19.90
2018-01-02T04:58:25.734Z,22.10
2018-01-02T04:59:25.690Z,24.10
2018-01-02T05:00:25.669Z,19.80
2018-01-02T05:01:25.645Z,21.70
2018-01-02T05:02:25.641Z,21.90
2018-01-02T05:03:25.611Z,20.30
2018-01-02T05:04:25.589Z,21.70
2018-01-02T05:05:25.575Z,22.30
2018-01-02T05:06:25.543Z,24.90
2018-01-02T05:07:25.532Z,21.00
2018-01-02T05:08:25.552Z,20.20
2018-01-02T05:09:25.480Z,22.30
2018-01-02T05:10:25.464Z,25.70
2018-01-02T05:11:25.439Z,23.90
2018-01-02T05:12:25.418Z,25.70
2018-01-02T05:13:25.399Z,27.20
2018-01-02T05:14:25.387Z,21.90
2018-01-02T05:15:25.359Z,23.40
2018-01-02T05:16:25.339Z,19.90
2018-01-02T05:17:25.321Z,23.10
2018-01-02T05:18:25.297Z,22.50
2018-01-02T05:19:25.277Z,22.30
2018-01-02T05:20:25.255Z,25.30
2018-01-02T05:21:25.236Z,21.40
2018-01-02T05:22:25.212Z,23.10
2018-01-02T05:23:25.198Z,25.10
2018-01-02T05:24:25.176Z,24.00
2018-01-02T05:25:25.155Z,23.70
2018-01-02T05:26:25.134Z,26.10
2018-01-02T05:27:25.112Z,22.50
2018-01-02T05:28:25.091Z,22.90
2018-01-02T05:29:25.070Z,20.40
2018-01-02T05:30:25.047Z,22.40
2018-01-02T05:31:25.031Z,23.00
2018-01-02T05:32:25.008Z,23.30
2018-01-02T05:33:24.986Z,26.70
2018-01-02T05:34:24.966Z,23.00
2018-01-02T05:35:24.954Z,23.90
2018-01-02T05:36:24.931Z,23.90
2018-01-02T05:37:24.910Z,27.20
2018-01-02T05:38:24.888Z,26.50
2018-01-02T05:39:24.866Z,23.90
2018-01-02T05:40:24.839Z,28.00
2018-01-02T05:41:24.820Z,24.00
2018-01-02T05:42:24.800Z,24.80
2018-01-02T05:43:24.777Z,23.70
2018-01-02T05:44:24.759Z,27.20
2018-01-02T05:45:24.740Z,24.80
2018-01-02T05:46:24.715Z,25.40
2018-01-02T05:47:24.696Z,24.30
2018-01-02T05:48:24.697Z,29.30
2018-01-02T05:49:24.660Z,27.40
2018-01-02T05:50:24.636Z,27.90
2018-01-02T05:51:24.614Z,30.50
2018-01-02T05:52:24.595Z,25.00
2018-01-02T05:53:24.572Z,27.40
2018-01-02T05:54:24.560Z,27.50
2018-01-02T05:55:24.535Z,25.80
2018-01-02T05:56:24.516Z,29.70
2018-01-02T05:57:24.490Z,28.50
2018-01-02T05:58:24.469Z,27.40
2018-01-02T05:59:24.449Z,28.00
2018-01-02T06:00:24.433Z,28.80
2018-01-02T06:01:24.410Z,29.20
2018-01-02T06:02:24.390Z,33.10
2018-01-02T06:03:24.368Z,27.70
2018-01-02T06:04:24.346Z,29.70
2018-01-02T06:05:24.329Z,31.60
2018-01-02T06:06:24.309Z,26.60
2018-01-02T06:07:24.290Z,29.00
2018-01-02T06:08:24.269Z,34.30
2018-01-02T06:09:24.249Z,28.80
2018-01-02T06:10:24.225Z,35.40
2018-01-02T06:11:24.204Z,31.40
2018-01-02T06:12:24.186Z,27.60
2018-01-02T06:13:24.163Z,30.50
2018-01-02T06:14:24.145Z,29.40
2018-01-02T06:15:24.129Z,31.40
2018-01-02T06:16:24.112Z,29.80
2018-01-02T06:17:24.091Z,27.80
2018-01-02T06:18:24.067Z,31.20
2018-01-02T06:19:24.042Z,32.10
2018-01-02T06:20:24.036Z,33.10
2018-01-02T06:21:24.000Z,29.90
2018-01-02T06:22:23.981Z,31.70
2018-01-02T06:23:23.962Z,33.50
2018-01-02T06:24:23.942Z,35.60
2018-01-02T06:25:23.981Z,27.30
2018-01-02T06:26:23.912Z,29.50
2018-01-02T06:27:23.891Z,32.60
2018-01-02T06:28:23.863Z,30.60
2018-01-02T06:29:23.842Z,31.80
2018-01-02T06:30:23.818Z,26.90
2018-01-02T06:31:23.800Z,29.10
2018-01-02T06:32:23.793Z,29.80
2018-01-02T06:33:23.760Z,29.10
2018-01-02T06:34:23.737Z,31.70
2018-01-02T06:35:23.713Z,34.40
2018-01-02T06:36:23.697Z,30.70
2018-01-02T06:37:23.673Z,34.30
2018-01-02T06:38:23.658Z,35.30
2018-01-02T06:39:23.638Z,29.90
2018-01-02T06:40:23.616Z,31.70
2018-01-02T06:41:23.590Z,32.80
2018-01-02T06:42:23.577Z,30.00
2018-01-02T06:43:23.554Z,32.10
2018-01-02T06:44:23.533Z,27.70
2018-01-02T06:45:23.510Z,28.90
2018-01-02T06:46:23.490Z,26.90
2018-01-02T06:47:23.473Z,32.90
2018-01-02T06:48:23.453Z,31.60
2018-01-02T06:49:23.431Z,35.40
2018-01-02T06:50:23.410Z,29.10
2018-01-02T06:51:23.391Z,35.00
2018-01-02T06:52:23.370Z,32.50
2018-01-02T06:53:23.349Z,30.50
2018-01-02T06:54:23.330Z,30.40
2018-01-02T06:55:23.308Z,27.50
2018-01-02T06:56:23.289Z,35.70
2018-01-02T06:57:23.265Z,29.70
2018-01-02T06:58:23.249Z,29.80
2018-01-02T06:59:23.228Z,29.10
2018-01-02T07:00:23.204Z,31.70
2018-01-02T07:01:23.185Z,32.50
2018-01-02T07:02:23.231Z,32.40
2018-01-02T07:03:23.143Z,32.30
2018-01-02T07:04:23.122Z,30.30
2018-01-02T07:05:23.100Z,28.90
2018-01-02T07:06:23.090Z,29.20
2018-01-02T07:07:23.059Z,32.70
2018-01-02T07:08:23.047Z,31.30
2018-01-02T07:09:23.022Z,31.30
2018-01-02T07:10:23.000Z,32.80
2018-01-02T07:11:22.979Z,30.90
2018-01-02T07:12:22.958Z,32.20
2018-01-02T07:13:22.939Z,31.30
2018-01-02T07:14:22.916Z,30.90
2018-01-02T07:15:22.899Z,38.60
2018-01-02T07:16:22.877Z,38.00
2018-01-02T07:17:22.860Z,33.40
2018-01-02T07:18:22.833Z,34.80
2018-01-02T07:19:22.812Z,32.70
2018-01-02T07:20:22.800Z,35.00
2018-01-02T07:21:22.775Z,33.40
2018-01-02T07:22:22.759Z,36.10
2018-01-02T07:23:22.732Z,33.70
2018-01-02T07:24:22.715Z,33.80
2018-01-02T07:25:22.699Z,33.70
2018-01-02T07:26:22.669Z,36.40
2018-01-02T07:27:22.649Z,36.20
2018-01-02T07:28:22.628Z,36.60
2018-01-02T07:29:22.609Z,36.70
2018-01-02T07:30:22.590Z,38.70
2018-01-02T07:31:22.567Z,35.60
2018-01-02T07:32:22.550Z,34.30
2018-01-02T07:33:22.527Z,30.00
2018-01-02T07:34:22.515Z,32.90
2018-01-02T07:35:22.483Z,35.50
2018-01-02T07:36:22.469Z,32.80
2018-01-02T07:37:22.441Z,32.80
2018-01-02T07:38:22.424Z,35.60
2018-01-02T07:39:22.400Z,35.70
2018-01-02T07:40:22.381Z,32.10
2018-01-02T07:41:22.364Z,34.50
2018-01-02T07:42:22.347Z,38.40
2018-01-02T07:43:22.319Z,36.90
2018-01-02T07:44:22.297Z,31.10
2018-01-02T07:45:22.279Z,38.00
2018-01-02T07:46:22.259Z,33.60
2018-01-02T07:47:22.234Z,34.00
2018-01-02T07:48:22.226Z,32.80
2018-01-02T07:49:22.196Z,31.90
2018-01-02T07:50:22.178Z,34.10
2018-01-02T07:51:22.161Z,33.70
2018-01-02T07:52:22.138Z,33.20
2018-01-02T07:53:22.117Z,29.90
2018-01-02T07:54:22.092Z,29.30
2018-01-02T07:55:22.074Z,31.00
2018-01-02T07:56:22.050Z,34.10
2018-01-02T07:57:22.030Z,31.30
2018-01-02T07:58:22.011Z,36.30
2018-01-02T07:59:21.988Z,31.60
2018-01-02T08:00:21.968Z,34.80
2018-01-02T08:01:21.949Z,33.00
2018-01-02T08:02:21.929Z,31.50
2018-01-02T08:03:21.907Z,29.20
2018-01-02T08:04:21.892Z,31.50
2018-01-02T08:05:21.869Z,31.30
2018-01-02T08:06:21.855Z,31.40
2018-01-02T08:07:21.828Z,33.10
2018-01-02T08:08:21.808Z,28.30
2018-01-02T08:09:21.784Z,27.70
2018-01-02T08:10:21.767Z,30.20
2018-01-02T08:11:21.749Z,27.00
2018-01-02T08:12:21.729Z,31.30
2018-01-02T08:13:21.705Z,27.30
2018-01-02T08:14:21.685Z,28.50
2018-01-02T08:15:21.671Z,28.20
2018-01-02T08:16:21.646Z,26.70
2018-01-02T08:17:21.629Z,26.90
2018-01-02T08:18:21.649Z,25.20
2018-01-02T08:19:21.633Z,27.30
2018-01-02T08:20:21.571Z,29.40
2018-01-02T08:21:21.549Z,22.50
2018-01-02T08:22:21.530Z,26.30
2018-01-02T08:23:21.509Z,24.30
2018-01-02T08:24:21.529Z,23.10
2018-01-02T08:25:21.546Z,27.20
2018-01-02T08:26:21.449Z,24.60
2018-01-02T08:27:21.432Z,22.10
2018-01-02T08:28:21.412Z,28.60
2018-01-02T08:29:21.436Z,21.20
2018-01-02T08:30:21.363Z,23.70
2018-01-02T08:31:21.362Z,28.80
2018-01-02T08:32:21.328Z,25.00
2018-01-02T08:33:21.303Z,26.90
2018-01-02T08:34:21.284Z,22.20
2018-01-02T08:35:21.286Z,23.70
2018-01-02T08:36:21.254Z,23.80
2018-01-02T08:37:21.223Z,22.30
2018-01-02T08:38:21.203Z,25.20
2018-01-02T08:39:21.180Z,33.20
2018-01-02T08:40:21.171Z,23.60
2018-01-02T08:41:21.161Z,23.10
2018-01-02T08:42:21.123Z,23.40
2018-01-02T08:43:21.136Z,20.30
2018-01-02T08:44:21.088Z,25.30
2018-01-02T08:45:21.111Z,22.80
2018-01-02T08:46:21.044Z,23.10
2018-01-02T08:47:21.071Z,25.20
2018-01-02T08:48:20.999Z,24.90
2018-01-02T08:49:20.981Z,23.40
2018-01-02T08:50:20.972Z,24.40
2018-01-02T08:51:20.993Z,23.90
2018-01-02T08:52:20.926Z,21.80
2018-01-02T08:53:20.901Z,23.60
2018-01-02T08:54:20.877Z,23.30
2018-01-02T08:55:20.854Z,21.90
2018-01-02T08:56:20.885Z,27.20
2018-01-02T08:57:20.864Z,25.20
2018-01-02T08:58:20.825Z,22.90
2018-01-02T08:59:20.820Z,22.10
2018-01-02T09:00:20.751Z,21.80
2018-01-02T09:01:20.737Z,20.30
2018-01-02T09:02:20.764Z,20.60
2018-01-02T09:03:20.692Z,19.10
2018-01-02T09:04:20.717Z,22.80
2018-01-02T09:05:20.664Z,22.60
2018-01-02T09:06:20.743Z,26.20
2018-01-02T09:07:20.612Z,22.20
2018-01-02T09:08:20.588Z,25.00
2018-01-02T09:09:20.571Z,21.50
2018-01-02T09:10:20.553Z,20.50
2018-01-02T09:11:20.532Z,22.80
2018-01-02T09:12:20.512Z,21.40
2018-01-02T09:13:20.496Z,20.30
2018-01-02T09:14:20.556Z,23.10
2018-01-02T09:15:20.455Z,24.20
2018-01-02T09:16:20.428Z,21.60
2018-01-02T09:17:20.407Z,18.70
2018-01-02T09:18:20.383Z,21.50
2018-01-02T09:19:20.369Z,20.50
2018-01-02T09:20:20.363Z,18.20
2018-01-02T09:21:20.330Z,23.00
2018-01-02T09:22:20.320Z,21.30
2018-01-02T09:23:20.290Z,20.50
2018-01-02T09:24:20.278Z,20.70
2018-01-02T09:25:20.250Z,18.60
2018-01-02T09:26:20.237Z,15.50
2018-01-02T09:27:20.207Z,17.20
2018-01-02T09:28:20.186Z,17.60
2018-01-02T09:29:20.171Z,16.90
2018-01-02T09:30:20.147Z,17.00
2018-01-02T09:31:20.125Z,16.10
2018-01-02T09:32:20.117Z,15.80
2018-01-02T09:33:20.138Z,16.20
2018-01-02T09:34:20.080Z,20.20
2018-01-02T09:35:20.053Z,24.90
2018-01-02T09:36:20.085Z,31.20
2018-01-02T09:37:20.006Z,14.80
2018-01-02T09:38:20.021Z,17.40
2018-01-02T09:39:19.968Z,15.00
2018-01-02T09:40:19.954Z,17.10
2018-01-02T09:41:19.931Z,15.30
2018-01-02T09:42:19.907Z,17.60
2018-01-02T09:43:19.943Z,16.90
2018-01-02T09:44:19.874Z,16.20
2018-01-02T09:45:19.945Z,15.40
2018-01-02T09:46:19.833Z,15.60
2018-01-02T09:47:19.992Z,18.30
2018-01-02T09:48:19.791Z,21.40
2018-01-02T09:49:19.869Z,17.70
2018-01-02T09:50:19.761Z,15.60
2018-01-02T09:51:19.780Z,17.40
2018-01-02T09:52:19.715Z,17.40
2018-01-02T09:53:19.800Z,16.00
2018-01-02T09:54:19.671Z,14.20
2018-01-02T09:55:19.758Z,12.00
2018-01-02T09:56:19.658Z,16.00
2018-01-02T09:57:19.716Z,12.50
2018-01-02T09:58:19.604Z,11.10
2018-01-02T09:59:19.595Z,12.70
2018-01-02T10:00:19.559Z,10.80
2018-01-02T10:01:19.592Z,12.20
2018-01-02T10:02:19.522Z,14.40
2018-01-02T10:03:19.563Z,16.30
2018-01-02T10:04:19.487Z,14.70
2018-01-02T10:05:19.608Z,11.60
2018-01-02T10:06:19.450Z,13.50
2018-01-02T10:07:19.531Z,12.20
2018-01-02T10:08:19.408Z,13.10
2018-01-02T10:09:19.397Z,14.20
2018-01-02T10:10:19.373Z,12.00
2018-01-02T10:11:19.513Z,9.20
2018-01-02T10:12:19.343Z,8.90
2018-01-02T10:13:19.369Z,8.80
2018-01-02T10:14:19.292Z,9.70
2018-01-02T10:15:19.272Z,6.80
2018-01-02T10:16:19.262Z,7.20
2018-01-02T10:17:19.241Z,11.60
2018-01-02T10:18:19.212Z,7.60
2018-01-02T10:19:19.194Z,10.40
2018-01-02T10:20:19.228Z,10.30
2018-01-02T10:21:19.175Z,15.60
2018-01-02T10:22:19.135Z,9.60
2018-01-02T10:23:19.124Z,7.80
2018-01-02T10:24:19.104Z,9.70
2018-01-02T10:25:19.123Z,10.80
2018-01-02T10:26:19.055Z,11.70
2018-01-02T10:27:19.040Z,11.80
2018-01-02T10:28:19.081Z,11.80
2018-01-02T10:29:19.010Z,10.90
2018-01-02T10:30:18.980Z,11.50
2018-01-02T10:31:18.970Z,9.80
2018-01-02T10:32:18.951Z,14.60
2018-01-02T10:33:18.934Z,11.10
2018-01-02T10:34:18.904Z,9.10
2018-01-02T10:35:18.882Z,15.50
2018-01-02T10:36:18.860Z,12.10
2018-01-02T10:37:18.841Z,11.90
2018-01-02T10:38:18.823Z,11.00
2018-01-02T10:39:18.818Z,12.40
2018-01-02T10:40:18.801Z,11.30
2018-01-02T10:41:18.765Z,9.10
2018-01-02T10:42:18.743Z,9.20
2018-01-02T10:43:18.728Z,7.90
2018-01-02T10:44:18.713Z,10.40
2018-01-02T10:45:18.692Z,17.00
2018-01-02T10:46:18.716Z,13.00
2018-01-02T10:47:18.662Z,12.40
2018-01-02T10:48:18.625Z,10.60
2018-01-02T10:49:18.606Z,15.40
2018-01-02T10:50:18.583Z,12.20
2018-01-02T10:51:18.564Z,11.00
2018-01-02T10:52:18.552Z,14.70
2018-01-02T10:53:18.525Z,13.00
2018-01-02T10:54:18.507Z,12.00
2018-01-02T10:55:18.545Z,12.60
2018-01-02T10:56:18.467Z,11.80
2018-01-02T10:57:18.456Z,15.50
2018-01-02T10:58:18.427Z,10.60
2018-01-02T10:59:18.414Z,12.30
2018-01-02T11:00:18.397Z,12.90
2018-01-02T11:01:18.382Z,10.80
2018-01-02T11:02:18.350Z,10.80
2018-01-02T11:03:18.335Z,10.90
2018-01-02T11:04:18.312Z,10.70
2018-01-02T11:05:18.344Z,13.40
2018-01-02T11:06:18.272Z,11.10
2018-01-02T11:07:18.254Z,10.80
2018-01-02T11:08:18.233Z,13.00
2018-01-02T11:09:18.418Z,11.00
2018-01-02T11:10:18.202Z,14.30
2018-01-02T11:11:18.298Z,13.40
2018-01-02T11:12:18.150Z,10.60
2018-01-02T11:13:18.134Z,9.20
2018-01-02T11:14:18.130Z,13.70
2018-01-02T11:15:18.184Z,13.60
2018-01-02T11:16:18.069Z,11.00
2018-01-02T11:17:18.103Z,16.30
2018-01-02T11:18:18.029Z,20.00
2018-01-02T11:19:18.113Z,21.90
2018-01-02T11:20:17.995Z,17.70
2018-01-02T11:21:18.212Z,24.30
2018-01-02T11:22:17.955Z,21.60
2018-01-02T11:23:18.087Z,23.10
2018-01-02T11:24:17.921Z,26.70
2018-01-02T11:25:17.986Z,19.30
2018-01-02T11:26:17.882Z,18.70
2018-01-02T11:27:17.864Z,14.10
2018-01-02T11:28:17.833Z,16.60
2018-01-02T11:29:17.818Z,14.40
2018-01-02T11:30:17.793Z,10.90
2018-01-02T11:31:17.972Z,12.40
2018-01-02T11:32:17.754Z,16.30
2018-01-02T11:33:17.825Z,12.60
2018-01-02T11:34:17.712Z,12.10
2018-01-02T11:35:17.705Z,10.20
2018-01-02T11:36:17.683Z,13.90
2018-01-02T11:37:17.657Z,13.20
2018-01-02T11:38:17.630Z,12.90
2018-01-02T11:39:17.615Z,8.20
2018-01-02T11:40:17.601Z,13.50
2018-01-02T11:41:17.623Z,14.30
2018-01-02T11:42:17.612Z,8.10
2018-01-02T11:43:17.548Z,14.50
2018-01-02T11:44:17.514Z,7.90
2018-01-02T11:45:17.497Z,11.90
2018-01-02T11:46:17.480Z,7.50
2018-01-02T11:47:17.459Z,10.70
2018-01-02T11:48:17.434Z,10.90
2018-01-02T11:49:17.428Z,11.00
2018-01-02T11:50:17.394Z,10.50
2018-01-02T11:51:17.399Z,9.70
2018-01-02T11:52:17.356Z,9.60
2018-01-02T11:53:17.339Z,14.10
2018-01-02T11:54:17.319Z,10.00
2018-01-02T11:55:17.302Z,9.90
2018-01-02T11:56:17.284Z,8.90
2018-01-02T11:57:17.271Z,6.30
2018-01-02T11:58:17.234Z,10.50
2018-01-02T11:59:17.217Z,10.70
2018-01-02T12:00:17.198Z,9.70
2018-01-02T12:01:17.178Z,13.20
2018-01-02T12:02:17.202Z,12.30
2018-01-02T12:03:17.180Z,8.50
2018-01-02T12:04:17.117Z,10.10
2018-01-02T12:05:17.120Z,6.10
2018-01-02T12:06:17.083Z,10.70
2018-01-02T12:07:17.061Z,9.60
2018-01-02T12:08:17.055Z,11.50
2018-01-02T12:09:17.030Z,10.60
2018-01-02T12:10:16.998Z,10.60
2018-01-02T12:11:16.973Z,8.90
2018-01-02T12:12:16.961Z,9.20
2018-01-02T12:13:16.942Z,11.10
2018-01-02T12:14:16.966Z,14.00
2018-01-02T12:15:16.966Z,15.50
2018-01-02T12:16:16.877Z,12.00
2018-01-02T12:17:16.907Z,10.80
2018-01-02T12:18:16.842Z,13.40
2018-01-02T12:19:16.825Z,12.80
2018-01-02T12:20:16.809Z,13.90
2018-01-02T12:21:16.777Z,14.70
2018-01-02T12:22:16.755Z,11.20
2018-01-02T12:23:16.757Z,12.80
2018-01-02T12:24:16.719Z,12.60
2018-01-02T12:25:16.701Z,9.70
2018-01-02T12:26:16.682Z,13.30
2018-01-02T12:27:16.727Z,13.90
2018-01-02T12:28:16.648Z,11.70
2018-01-02T12:29:16.754Z,10.10
2018-01-02T12:30:16.608Z,9.40
2018-01-02T12:31:16.586Z,13.60
2018-01-02T12:32:16.559Z,13.60
2018-01-02T12:33:16.548Z,11.30
2018-01-02T12:34:16.579Z,14.10
2018-01-02T12:35:16.498Z,14.80
2018-01-02T12:36:16.474Z,10.30
2018-01-02T12:37:16.472Z,9.40
2018-01-02T12:38:16.436Z,10.70
2018-01-02T12:39:16.425Z,10.10
2018-01-02T12:40:16.399Z,10.70
2018-01-02T12:41:16.384Z,6.90
2018-01-02T12:42:16.373Z,9.90
2018-01-02T12:43:16.506Z,7.90
2018-01-02T12:44:16.370Z,7.50
2018-01-02T12:45:16.453Z,10.30
2018-01-02T12:46:16.279Z,11.40
2018-01-02T12:47:16.268Z,8.50
2018-01-02T12:48:16.248Z,9.70
2018-01-02T12:49:16.226Z,8.70
2018-01-02T12:50:16.201Z,8.40
2018-01-02T12:51:16.186Z,9.20
2018-01-02T12:52:16.166Z,10.00
2018-01-02T12:53:16.142Z,12.30
2018-01-02T12:54:16.119Z,10.00
2018-01-02T12:55:16.100Z,11.80
2018-01-02T12:56:16.075Z,12.10
2018-01-02T12:57:16.058Z,12.20